MPTO/PTY METAR and TAF weather

Enter ICAO airport designator
Station Type Date Time Source
MPTO METAR 2022/01/29 13:00 UTC NOAA

MPTO 291300Z 25003KT 9999 FEW020 24/20 Q1012 NOSIG


Station Type Date Time Source
MPTO Decoded METAR 2022/01/29 13:00 UTC NOAA

Tocumen, Panama (MPTO) 09-03N 079-22W
Jan 29, 2022 - 08:00 AM EST / 2022.01.29 1300 UTC
Wind: from the WSW (250 degrees) at 3 MPH (3 KT):0
Visibility: greater than 7 mile(s):0
Sky conditions: mostly clear
Temperature: 75 F (24 C)
Dew Point: 68 F (20 C)
Relative Humidity: 78%
Pressure (altimeter): 29.88 in. Hg (1012 hPa)
ob: MPTO 291300Z 25003KT 9999 FEW020 24/20 Q1012 NOSIG
cycle: 13

Station Type Date Time Source
MPTO TAF 2022/01/29 12:11 UTC NOAA

TAF MPTO 291100Z 2912/3018 34007KT 9999 FEW020
TEMPO 2912/2914 28006KT
TEMPO 2918/2922 35014KT SCT018
TEMPO 3006/3010 VRB02KT

Example: see airport list